sensor_id;sensor_type;location;lat;lon;timestamp;P1;P2;P0
76043;PMS7003;64740;34.694;33.088;2024-01-15T00:03:04;12.9;10.6;7.5
76043;PMS7003;64740;34.694;33.088;2024-01-15T00:08:06;11.6;10.6;6.4
76043;PMS7003;64740;34.694;33.088;2024-01-15T00:22:42;12.7;10.1;6.1
76043;PMS7003;64740;34.694;33.088;2024-01-15T00:27:42;12.2;10.3;6.4
76043;PMS7003;64740;34.694;33.088;2024-01-15T00:32:34;12;9.9;6.3
76043;PMS7003;64740;34.694;33.088;2024-01-15T00:37:54;14.4;12.5;8.4
76043;PMS7003;64740;34.694;33.088;2024-01-15T00:43:04;12.2;10.8;7.6
76043;PMS7003;64740;34.694;33.088;2024-01-15T00:47:54;11.2;9.5;6
76043;PMS7003;64740;34.694;33.088;2024-01-15T00:53:18;12.4;11.5;7.3
76043;PMS7003;64740;34.694;33.088;2024-01-15T00:57:42;11.3;10.2;6.6
76043;PMS7003;64740;34.694;33.088;2024-01-15T01:02:36;13.5;11;6.9
76043;PMS7003;64740;34.694;33.088;2024-01-15T01:07:42;13;11.7;7.3
76043;PMS7003;64740;34.694;33.088;2024-01-15T01:13:04;13.3;11.4;7.5
76043;PMS7003;64740;34.694;33.088;2024-01-15T01:18:18;12.7;11.4;7.6
76043;PMS7003;64740;34.694;33.088;2024-01-15T01:23:04;12.9;11.9;7.2
76043;PMS7003;64740;34.694;33.088;2024-01-15T01:27:54;11.9;10.3;6.3
76043;PMS7003;64740;34.694;33.088;2024-01-15T01:33:16;12.4;10.4;6.6
76043;PMS7003;64740;34.694;33.088;2024-01-15T01:38:18;11.8;9.9;5.8
76043;PMS7003;64740;34.694;33.088;2024-01-15T01:43:08;12.3;10.4;7.1
76043;PMS7003;64740;34.694;33.088;2024-01-15T01:47:42;12.3;10.5;6.7
76043;PMS7003;64740;34.694;33.088;2024-01-15T01:52:35;12.7;11.1;7.3
76043;PMS7003;64740;34.694;33.088;2024-01-15T01:57:50;11.4;10;6.3
76043;PMS7003;64740;34.694;33.088;2024-01-15T02:02:54;11.3;10.4;6.9
76043;PMS7003;64740;34.694;33.088;2024-01-15T02:07:42;11.4;10;6.4
76043;PMS7003;64740;34.694;33.088;2024-01-15T02:12:44;10.1;8.7;5.7
76043;PMS7003;64740;34.694;33.088;2024-01-15T02:18:05;9.3;7.8;5
76043;PMS7003;64740;34.694;33.088;2024-01-15T02:22:53;12.4;10.2;6.4
76043;PMS7003;64740;34.694;33.088;2024-01-15T02:28:18;11.1;9.8;6.3
76043;PMS7003;64740;34.694;33.088;2024-01-15T02:32:54;9.9;8.6;5.1
76043;PMS7003;64740;34.694;33.088;2024-01-15T02:38:05;10.7;8.4;5
76043;PMS7003;64740;34.694;33.088;2024-01-15T02:42:34;7.8;7;4.4
76043;PMS7003;64740;34.694;33.088;2024-01-15T02:48:05;9.3;7.7;5
76043;PMS7003;64740;34.694;33.088;2024-01-15T02:53:05;7.9;6.6;4.1
76043;PMS7003;64740;34.694;33.088;2024-01-15T02:57:35;7.5;6.4;3.9
76043;PMS7003;64740;34.694;33.088;2024-01-15T03:02:55;8.2;7.1;4.5
76043;PMS7003;64740;34.694;33.088;2024-01-15T03:08:16;8.7;6.5;4.2
76043;PMS7003;64740;34.694;33.088;2024-01-15T03:13:18;7.9;6;3.5
76043;PMS7003;64740;34.694;33.088;2024-01-15T03:17:54;8.9;6.8;4.1
76043;PMS7003;64740;34.694;33.088;2024-01-15T03:23:04;8.3;7.1;4.4
76043;PMS7003;64740;34.694;33.088;2024-01-15T03:28:05;9.6;7.6;4.5
76043;PMS7003;64740;34.694;33.088;2024-01-15T03:32:42;8;6.9;4.3
76043;PMS7003;64740;34.694;33.088;2024-01-15T03:37:47;8.7;7.5;4.8
76043;PMS7003;64740;34.694;33.088;2024-01-15T03:42:42;8.1;7;4.2
76043;PMS7003;64740;34.694;33.088;2024-01-15T03:47:34;7.3;6.3;3.7
76043;PMS7003;64740;34.694;33.088;2024-01-15T03:53:16;9.9;8.4;5.2
76043;PMS7003;64740;34.694;33.088;2024-01-15T03:57:36;9.2;7.7;4.8
76043;PMS7003;64740;34.694;33.088;2024-01-15T04:03:16;7.9;6.6;4
76043;PMS7003;64740;34.694;33.088;2024-01-15T04:08:18;9.9;7.4;4.6
76043;PMS7003;64740;34.694;33.088;2024-01-15T04:12:42;8.5;7.6;5.1
76043;PMS7003;64740;34.694;33.088;2024-01-15T04:18:18;8.3;6.8;4.2
76043;PMS7003;64740;34.694;33.088;2024-01-15T04:23:19;7.9;6.6;3.9
76043;PMS7003;64740;34.694;33.088;2024-01-15T04:27:56;8.3;6.8;4.5
76043;PMS7003;64740;34.694;33.088;2024-01-15T04:32:34;8.1;6.8;4.2
76043;PMS7003;64740;34.694;33.088;2024-01-15T04:38:19;9.2;7.3;4.5
76043;PMS7003;64740;34.694;33.088;2024-01-15T04:43:06;9.5;8.1;5
76043;PMS7003;64740;34.694;33.088;2024-01-15T04:48:18;8.8;7.3;4.7
76043;PMS7003;64740;34.694;33.088;2024-01-15T04:52:54;8;7;4.1
76043;PMS7003;64740;34.694;33.088;2024-01-15T04:58:18;8.5;6.9;3.8
76043;PMS7003;64740;34.694;33.088;2024-01-15T05:02:34;9.3;8;5.3
76043;PMS7003;64740;34.694;33.088;2024-01-15T05:07:43;8.6;6.9;4.3
76043;PMS7003;64740;34.694;33.088;2024-01-15T05:12:43;8.9;7.4;4.8
76043;PMS7003;64740;34.694;33.088;2024-01-15T05:17:42;8.4;6.9;4.6
76043;PMS7003;64740;34.694;33.088;2024-01-15T05:22:34;11.4;9.3;5.9
76043;PMS7003;64740;34.694;33.088;2024-01-15T05:27:47;11.2;8.7;5.4
76043;PMS7003;64740;34.694;33.088;2024-01-15T05:33:07;12.1;9.7;6.2
76043;PMS7003;64740;34.694;33.088;2024-01-15T05:37:46;14.3;11.7;7.4
76043;PMS7003;64740;34.694;33.088;2024-01-15T05:43:19;9.8;8.5;5.4
76043;PMS7003;64740;34.694;33.088;2024-01-15T05:47:53;11.8;8.9;5.7
76043;PMS7003;64740;34.694;33.088;2024-01-15T05:53:08;10.2;8.7;5.4
76043;PMS7003;64740;34.694;33.088;2024-01-15T05:57:43;9.1;7.2;4.2
76043;PMS7003;64740;34.694;33.088;2024-01-15T06:03:05;8.9;7.5;4.4
76043;PMS7003;64740;34.694;33.088;2024-01-15T06:07:35;7.8;7.1;4.1
76043;PMS7003;64740;34.694;33.088;2024-01-15T06:13:05;9.2;7.3;4.6
76043;PMS7003;64740;34.694;33.088;2024-01-15T06:18:17;8.1;7;4.6
76043;PMS7003;64740;34.694;33.088;2024-01-15T06:23:05;8.1;6.9;4.1
76043;PMS7003;64740;34.694;33.088;2024-01-15T06:27:35;8.6;7;4.2
76043;PMS7003;64740;34.694;33.088;2024-01-15T06:33:20;9.1;7.5;4.1
76043;PMS7003;64740;34.694;33.088;2024-01-15T06:38:19;8.7;7.7;4.5
76043;PMS7003;64740;34.694;33.088;2024-01-15T06:43:09;7.4;6.8;4.4
76043;PMS7003;64740;34.694;33.088;2024-01-15T06:47:47;8.4;6.1;4
76043;PMS7003;64740;34.694;33.088;2024-01-15T06:52:53;8.1;7;4.6
76043;PMS7003;64740;34.694;33.088;2024-01-15T06:57:43;8.3;7.1;4.4
76043;PMS7003;64740;34.694;33.088;2024-01-15T07:02:45;8.8;7.2;4.5
76043;PMS7003;64740;34.694;33.088;2024-01-15T07:07:43;9.5;7.5;4.5
76043;PMS7003;64740;34.694;33.088;2024-01-15T07:13:19;7.9;6.4;3.9
76043;PMS7003;64740;34.694;33.088;2024-01-15T07:18:05;9.2;7.6;4.8
76043;PMS7003;64740;34.694;33.088;2024-01-15T07:22:53;9.1;7.1;4.3
76043;PMS7003;64740;34.694;33.088;2024-01-15T07:28:17;7.9;6.9;4
76043;PMS7003;64740;34.694;33.088;2024-01-15T07:33:10;9.3;7.1;4.6
76043;PMS7003;64740;34.694;33.088;2024-01-15T07:38:05;7.8;6.7;4.3
76043;PMS7003;64740;34.694;33.088;2024-01-15T07:42:49;9.1;7.8;4.9
76043;PMS7003;64740;34.694;33.088;2024-01-15T07:47:37;7.5;6;4
76043;PMS7003;64740;34.694;33.088;2024-01-15T07:53:05;8.1;6.7;4
76043;PMS7003;64740;34.694;33.088;2024-01-15T07:57:35;7.7;6.2;3.6
76043;PMS7003;64740;34.694;33.088;2024-01-15T08:02:55;7.6;5.9;3.9
76043;PMS7003;64740;34.694;33.088;2024-01-15T08:08:07;7.9;6.7;4.2
76043;PMS7003;64740;34.694;33.088;2024-01-15T08:13:19;7.3;6.4;4.1
76043;PMS7003;64740;34.694;33.088;2024-01-15T08:17:47;7.2;6.6;4.3
76043;PMS7003;64740;34.694;33.088;2024-01-15T08:23:05;6.7;6.3;3.8
76043;PMS7003;64740;34.694;33.088;2024-01-15T08:27:35;8.4;6.7;4
76043;PMS7003;64740;34.694;33.088;2024-01-15T08:32:35;9.6;7.6;4.8
76043;PMS7003;64740;34.694;33.088;2024-01-15T08:37:35;7;5.8;3.8
76043;PMS7003;64740;34.694;33.088;2024-01-15T08:42:35;6.7;6.2;3.9
76043;PMS7003;64740;34.694;33.088;2024-01-15T08:47:43;8.3;6.8;4
76043;PMS7003;64740;34.694;33.088;2024-01-15T08:53:19;7.5;6.1;3.9
76043;PMS7003;64740;34.694;33.088;2024-01-15T08:58:09;7;5.9;3.6
76043;PMS7003;64740;34.694;33.088;2024-01-15T09:03:19;6.6;5.3;3.3
76043;PMS7003;64740;34.694;33.088;2024-01-15T09:08:17;5.8;5.4;3.1
76043;PMS7003;64740;34.694;33.088;2024-01-15T09:12:53;5.2;4.5;2.7
76043;PMS7003;64740;34.694;33.088;2024-01-15T09:18:19;5;4.3;2.5
76043;PMS7003;64740;34.694;33.088;2024-01-15T09:23:17;6;4.8;3
76043;PMS7003;64740;34.694;33.088;2024-01-15T09:28:05;6.7;5.4;3.4
76043;PMS7003;64740;34.694;33.088;2024-01-15T09:32:51;5.3;4.7;2.8
76043;PMS7003;64740;34.694;33.088;2024-01-15T09:38:03;5.6;5;3
76043;PMS7003;64740;34.694;33.088;2024-01-15T09:43:09;4.8;4.1;2.6
76043;PMS7003;64740;34.694;33.088;2024-01-15T09:48:19;4.6;3.9;2.2
76043;PMS7003;64740;34.694;33.088;2024-01-15T09:52:55;4.6;3.6;2.1
76043;PMS7003;64740;34.694;33.088;2024-01-15T09:58:17;4.1;3.3;1.9
76043;PMS7003;64740;34.694;33.088;2024-01-15T10:02:35;4;3;1.9
76043;PMS7003;64740;34.694;33.088;2024-01-15T10:07:35;6.3;4.8;3
76043;PMS7003;64740;34.694;33.088;2024-01-15T10:12:35;6.2;5.8;3.9
76043;PMS7003;64740;34.694;33.088;2024-01-15T10:17:43;7.5;6.5;4
76043;PMS7003;64740;34.694;33.088;2024-01-15T10:22:35;7.1;5.9;3.7
76043;PMS7003;64740;34.694;33.088;2024-01-15T10:27:43;6.2;5.5;3.5
76043;PMS7003;64740;34.694;33.088;2024-01-15T10:33:07;8.1;6.2;3.7
76043;PMS7003;64740;34.694;33.088;2024-01-15T10:37:35;6.1;5.4;3.1
76043;PMS7003;64740;34.694;33.088;2024-01-15T10:43:19;6.1;5.2;3.1
76043;PMS7003;64740;34.694;33.088;2024-01-15T10:47:55;7.8;5.7;3.5
76043;PMS7003;64740;34.694;33.088;2024-01-15T10:53:19;5.7;5;3.2
76043;PMS7003;64740;34.694;33.088;2024-01-15T10:57:35;5.8;5.1;3
76043;PMS7003;64740;34.694;33.088;2024-01-15T11:03:05;5.9;4.9;3.2
76043;PMS7003;64740;34.694;33.088;2024-01-15T11:07:51;5.4;4.9;2.9
76043;PMS7003;64740;34.694;33.088;2024-01-15T11:13:05;5.5;4.1;2.5
76043;PMS7003;64740;34.694;33.088;2024-01-15T11:18:19;5.1;4.7;3
76043;PMS7003;64740;34.694;33.088;2024-01-15T11:23:05;5.1;4.4;2.6
76043;PMS7003;64740;34.694;33.088;2024-01-15T11:27:47;5;4.6;2.8
76043;PMS7003;64740;34.694;33.088;2024-01-15T11:33:32;4.5;3.8;2.3
76043;PMS7003;64740;34.694;33.088;2024-01-15T11:38:28;4.7;4.1;2.5
76043;PMS7003;64740;34.694;33.088;2024-01-15T11:42:49;5.1;4.2;2.3
76043;PMS7003;64740;34.694;33.088;2024-01-15T11:47:51;4.9;3.9;2.1
76043;PMS7003;64740;34.694;33.088;2024-01-15T11:52:35;4.2;3.9;2.5
76043;PMS7003;64740;34.694;33.088;2024-01-15T11:57:45;5.5;4.4;2.7
76043;PMS7003;64740;34.694;33.088;2024-01-15T12:02:35;5.2;4.5;2.6
76043;PMS7003;64740;34.694;33.088;2024-01-15T12:08:05;4.6;3.3;2
76043;PMS7003;64740;34.694;33.088;2024-01-15T12:12:57;5.2;4.4;2.7
76043;PMS7003;64740;34.694;33.088;2024-01-15T12:18:03;4.1;3.3;1.9
76043;PMS7003;64740;34.694;33.088;2024-01-15T12:22:35;4;3.3;2
76043;PMS7003;64740;34.694;33.088;2024-01-15T12:28:17;5.2;4.4;2.3
76043;PMS7003;64740;34.694;33.088;2024-01-15T12:33:07;4;3.6;2.1
76043;PMS7003;64740;34.694;33.088;2024-01-15T12:38:05;4;3.2;2.1
76043;PMS7003;64740;34.694;33.088;2024-01-15T12:43:13;4.2;3.5;1.9
76043;PMS7003;64740;34.694;33.088;2024-01-15T12:48:05;4.4;3.2;2
76043;PMS7003;64740;34.694;33.088;2024-01-15T12:52:37;4.1;3.6;2.1
76043;PMS7003;64740;34.694;33.088;2024-01-15T12:57:51;3.5;2.9;1.8
76043;PMS7003;64740;34.694;33.088;2024-01-15T13:02:57;3.7;3.6;2
76043;PMS7003;64740;34.694;33.088;2024-01-15T13:08:09;3.5;3.3;1.9
76043;PMS7003;64740;34.694;33.088;2024-01-15T13:13:19;3.7;3.5;2.1
76043;PMS7003;64740;34.694;33.088;2024-01-15T13:17:55;4.2;3.2;1.9
76043;PMS7003;64740;34.694;33.088;2024-01-15T13:23:19;3.7;3.1;1.8
76043;PMS7003;64740;34.694;33.088;2024-01-15T13:27:35;4.5;3.2;1.8
76043;PMS7003;64740;34.694;33.088;2024-01-15T13:32:35;4.3;3.6;2.1
76043;PMS7003;64740;34.694;33.088;2024-01-15T13:37:45;4.5;3.8;2.2
76043;PMS7003;64740;34.694;33.088;2024-01-15T13:42:41;3.9;3.6;2.3
76043;PMS7003;64740;34.694;33.088;2024-01-15T13:47:47;4.3;3.6;2.2
76043;PMS7003;64740;34.694;33.088;2024-01-15T13:53:19;4;3.1;1.6
76043;PMS7003;64740;34.694;33.088;2024-01-15T13:58:09;4;3.7;2.1
76043;PMS7003;64740;34.694;33.088;2024-01-15T14:03:17;4.8;3.9;2.6
76043;PMS7003;64740;34.694;33.088;2024-01-15T14:08:19;5.3;4.2;2.4
76043;PMS7003;64740;34.694;33.088;2024-01-15T14:12:49;4.6;3.6;2.3
76043;PMS7003;64740;34.694;33.088;2024-01-15T14:18:19;4.7;3.8;2.4
76043;PMS7003;64740;34.694;33.088;2024-01-15T14:23:19;5.3;4.6;2.8
76043;PMS7003;64740;34.694;33.088;2024-01-15T14:28:05;7.5;5.6;3.6
76043;PMS7003;64740;34.694;33.088;2024-01-15T14:32:55;5.4;4.6;3
76043;PMS7003;64740;34.694;33.088;2024-01-15T14:37:35;5.1;4.5;2.7
76043;PMS7003;64740;34.694;33.088;2024-01-15T14:42:35;5.7;4.8;3
76043;PMS7003;64740;34.694;33.088;2024-01-15T14:47:43;5.4;4.3;2.8
76043;PMS7003;64740;34.694;33.088;2024-01-15T14:52:35;7.3;6.3;4
76043;PMS7003;64740;34.694;33.088;2024-01-15T14:57:35;7.4;6.2;3.8
76043;PMS7003;64740;34.694;33.088;2024-01-15T15:02:35;7.1;5.8;3.5
76043;PMS7003;64740;34.694;33.088;2024-01-15T15:08:17;6.8;6;3.7
76043;PMS7003;64740;34.694;33.088;2024-01-15T15:13:09;7;5.5;3.5
76043;PMS7003;64740;34.694;33.088;2024-01-15T15:18:19;6.1;5.5;3.5
76043;PMS7003;64740;34.694;33.088;2024-01-15T15:23:17;6.8;5.8;3.6
76043;PMS7003;64740;34.694;33.088;2024-01-15T15:28:09;7.9;6.4;4
76043;PMS7003;64740;34.694;33.088;2024-01-15T15:33:05;8.6;6.9;4.2
76043;PMS7003;64740;34.694;33.088;2024-01-15T15:38:19;8.1;6.7;4.1
76043;PMS7003;64740;34.694;33.088;2024-01-15T15:43:05;7.3;6.1;3.8
76043;PMS7003;64740;34.694;33.088;2024-01-15T15:47:43;5.4;5.3;3.5
76043;PMS7003;64740;34.694;33.088;2024-01-15T15:53:05;8.4;7;4.3
76043;PMS7003;64740;34.694;33.088;2024-01-15T15:57:49;9.3;7.5;4.9
76043;PMS7003;64740;34.694;33.088;2024-01-15T16:03:19;7.6;6.1;3.9
76043;PMS7003;64740;34.694;33.088;2024-01-15T16:08:19;4.3;3.6;2
76043;PMS7003;64740;34.694;33.088;2024-01-15T16:13:19;4;3.2;1.7
76043;PMS7003;64740;34.694;33.088;2024-01-15T16:17:55;6;4.9;3
76043;PMS7003;64740;34.694;33.088;2024-01-15T16:22:43;5.7;4.6;2.7
76043;PMS7003;64740;34.694;33.088;2024-01-15T16:27:35;6.4;4.9;2.9
76043;PMS7003;64740;34.694;33.088;2024-01-15T16:32:53;8.2;6.8;4.2
76043;PMS7003;64740;34.694;33.088;2024-01-15T16:37:35;11.1;9.2;5.2
76043;PMS7003;64740;34.694;33.088;2024-01-15T16:42:43;13.4;10.5;6.4
76043;PMS7003;64740;34.694;33.088;2024-01-15T16:48:09;14;12.8;8.2
76043;PMS7003;64740;34.694;33.088;2024-01-15T16:52:35;17.2;14.5;9.4
76043;PMS7003;64740;34.694;33.088;2024-01-15T16:58:17;18.8;15.5;10
76043;PMS7003;64740;34.694;33.088;2024-01-15T17:02:55;19.8;16.7;11
76043;PMS7003;64740;34.694;33.088;2024-01-15T17:08:17;24;20.2;12.8
76043;PMS7003;64740;34.694;33.088;2024-01-15T17:12:59;25.8;22.9;13.4
76043;PMS7003;64740;34.694;33.088;2024-01-15T17:18:05;31.1;26.7;16.7
76043;PMS7003;64740;34.694;33.088;2024-01-15T17:22:35;30.2;27.2;16.4
76043;PMS7003;64740;34.694;33.088;2024-01-15T17:28:17;28.8;24.4;15.8
76043;PMS7003;64740;34.694;33.088;2024-01-15T17:33:17;28.4;24.6;16.5
76043;PMS7003;64740;34.694;33.088;2024-01-15T17:38:05;30.6;26.3;17
76043;PMS7003;64740;34.694;33.088;2024-01-15T17:42:55;30.3;27;16.3
76043;PMS7003;64740;34.694;33.088;2024-01-15T17:48:19;30.7;27.9;17.9
76043;PMS7003;64740;34.694;33.088;2024-01-15T17:53:19;26.3;22.4;14
76043;PMS7003;64740;34.694;33.088;2024-01-15T17:58:09;21.4;18.9;12.2
76043;PMS7003;64740;34.694;33.088;2024-01-15T18:02:55;22.3;18.5;12.2
76043;PMS7003;64740;34.694;33.088;2024-01-15T18:07:43;20.4;18.4;11.9
76043;PMS7003;64740;34.694;33.088;2024-01-15T18:12:35;19.6;17.3;10.8
76043;PMS7003;64740;34.694;33.088;2024-01-15T18:17:43;19.5;16.7;10.5
76043;PMS7003;64740;34.694;33.088;2024-01-15T18:23:05;20.6;16.9;10.2
76043;PMS7003;64740;34.694;33.088;2024-01-15T18:28:09;18.3;14.6;9.7
76043;PMS7003;64740;34.694;33.088;2024-01-15T18:33:05;26.8;21.8;13
76043;PMS7003;64740;34.694;33.088;2024-01-15T18:37:55;41.2;31.7;18.8
76043;PMS7003;64740;34.694;33.088;2024-01-15T18:43:17;40;30.6;17.5
76043;PMS7003;64740;34.694;33.088;2024-01-15T18:48:09;31.3;25;14.4
76043;PMS7003;64740;34.694;33.088;2024-01-15T18:53:05;44.7;35.4;20.3
76043;PMS7003;64740;34.694;33.088;2024-01-15T18:58:05;30.5;24.4;15
76043;PMS7003;64740;34.694;33.088;2024-01-15T19:03:05;23.4;18.8;11.9
76043;PMS7003;64740;34.694;33.088;2024-01-15T19:08:19;25.1;21.7;13.7
76043;PMS7003;64740;34.694;33.088;2024-01-15T19:13:01;26.8;22.8;13.9
76043;PMS7003;64740;34.694;33.088;2024-01-15T19:18:05;30;23.6;14.3
76043;PMS7003;64740;34.694;33.088;2024-01-15T19:23:03;34.1;27.1;15.6
76043;PMS7003;64740;34.694;33.088;2024-01-15T19:28:15;33.4;26.1;14.7
76043;PMS7003;64740;34.694;33.088;2024-01-15T19:32:33;23.1;18.7;11.4
76043;PMS7003;64740;34.694;33.088;2024-01-15T19:37:55;20.7;16.6;9.4
76043;PMS7003;64740;34.694;33.088;2024-01-15T19:42:41;10.3;9;5.8
76043;PMS7003;64740;34.694;33.088;2024-01-15T19:47:41;12.8;10.6;6.4
76043;PMS7003;64740;34.694;33.088;2024-01-15T19:52:43;14.4;11.4;6.5
76043;PMS7003;64740;34.694;33.088;2024-01-15T19:57:49;13.2;11.8;7.5
76043;PMS7003;64740;34.694;33.088;2024-01-15T20:02:41;14.4;12.3;7.9
76043;PMS7003;64740;34.694;33.088;2024-01-15T20:08:01;14.9;12.1;6.8
76043;PMS7003;64740;34.694;33.088;2024-01-15T20:12:53;18;15.1;9.8
76043;PMS7003;64740;34.694;33.088;2024-01-15T20:18:17;27.1;21.2;13.2
76043;PMS7003;64740;34.694;33.088;2024-01-15T20:23:05;26.5;22.5;13.9
76043;PMS7003;64740;34.694;33.088;2024-01-15T20:28:01;21.4;17.8;10.7
76043;PMS7003;64740;34.694;33.088;2024-01-15T20:32:49;24.6;20.8;12.9
76043;PMS7003;64740;34.694;33.088;2024-01-15T20:38:03;14.1;11.2;6.8
76043;PMS7003;64740;34.694;33.088;2024-01-15T20:43:03;10.6;8.1;5.5
76043;PMS7003;64740;34.694;33.088;2024-01-15T20:47:41;10.4;8.8;5.2
76043;PMS7003;64740;34.694;33.088;2024-01-15T20:52:33;10.1;9;5.5
76043;PMS7003;64740;34.694;33.088;2024-01-15T20:58:06;12.2;10.6;6.3
76043;PMS7003;64740;34.694;33.088;2024-01-15T21:03:15;10.8;9.8;6.2
76043;PMS7003;64740;34.694;33.088;2024-01-15T21:07:53;18.2;15.2;9.1
76043;PMS7003;64740;34.694;33.088;2024-01-15T21:12:47;15.4;12.8;7.2
76043;PMS7003;64740;34.694;33.088;2024-01-15T21:17:41;14.1;11.7;7.2
76043;PMS7003;64740;34.694;33.088;2024-01-15T21:22:41;13.3;11.8;6.9
76043;PMS7003;64740;34.694;33.088;2024-01-15T21:27:33;12.8;10.2;6.1
76043;PMS7003;64740;34.694;33.088;2024-01-15T21:32:33;11.2;9.9;5.7
76043;PMS7003;64740;34.694;33.088;2024-01-15T21:37:53;12.8;10.7;6.4
76043;PMS7003;64740;34.694;33.088;2024-01-15T21:43:13;10.7;8.6;5.3
76043;PMS7003;64740;34.694;33.088;2024-01-15T21:48:07;9.1;7.8;5.1
76043;PMS7003;64740;34.694;33.088;2024-01-15T21:53:15;8.2;6.9;4.2
76043;PMS7003;64740;34.694;33.088;2024-01-15T21:58:15;8.3;6.9;4.4
76043;PMS7003;64740;34.694;33.088;2024-01-15T22:02:51;6.2;5.5;3.4
76043;PMS7003;64740;34.694;33.088;2024-01-15T22:08:17;8.8;7.5;4.4
76043;PMS7003;64740;34.694;33.088;2024-01-15T22:13:15;8.1;6.7;4.3
76043;PMS7003;64740;34.694;33.088;2024-01-15T22:18:04;7.1;5.8;3.3
76043;PMS7003;64740;34.694;33.088;2024-01-15T22:22:41;6.6;5.7;3.7
76043;PMS7003;64740;34.694;33.088;2024-01-15T22:28:01;7.3;6.2;4
76043;PMS7003;64740;34.694;33.088;2024-01-15T22:33:03;8.1;6.7;3.8
76043;PMS7003;64740;34.694;33.088;2024-01-15T22:38:15;7.5;6;3.5
76043;PMS7003;64740;34.694;33.088;2024-01-15T22:42:53;10.4;8.8;5.7
76043;PMS7003;64740;34.694;33.088;2024-01-15T22:48:13;10.7;8.8;5.3
76043;PMS7003;64740;34.694;33.088;2024-01-15T22:52:53;10.2;8;4.7
76043;PMS7003;64740;34.694;33.088;2024-01-15T22:57:49;13;11;6.5
76043;PMS7003;64740;34.694;33.088;2024-01-15T23:02:53;7.5;5.9;3.3
76043;PMS7003;64740;34.694;33.088;2024-01-15T23:07:41;4.7;3.9;2.4
76043;PMS7003;64740;34.694;33.088;2024-01-15T23:12:33;4.9;4.4;2.6
76043;PMS7003;64740;34.694;33.088;2024-01-15T23:17:33;6.2;4.8;2.8
76043;PMS7003;64740;34.694;33.088;2024-01-15T23:23:05;5.1;4;2.3
76043;PMS7003;64740;34.694;33.088;2024-01-15T23:27:33;6.1;5.2;3.2
76043;PMS7003;64740;34.694;33.088;2024-01-15T23:33:15;6.8;5.3;3
76043;PMS7003;64740;34.694;33.088;2024-01-15T23:37:33;5.7;5.1;3.1
76043;PMS7003;64740;34.694;33.088;2024-01-15T23:43:17;6.3;5.6;3.5
76043;PMS7003;64740;34.694;33.088;2024-01-15T23:47:41;8.7;7.8;4.8
76043;PMS7003;64740;34.694;33.088;2024-01-15T23:52:35;7.9;6.9;4.3
76043;PMS7003;64740;34.694;33.088;2024-01-15T23:57:41;6.7;5.4;3.2
